首页
METAR-TAF:

METAR-TAF

机场 :

阿什维尔, 北卡罗来纳州, 美国

纬度: 35-25-55N, 经度: 082-32-15W, 海拔: 660米

当前天气观测

该预报发布于12分钟前的14:14 UTC
风速5节,风向西转西北
温度 12°C
湿度 94%
气压 1013 hPa
能見度: 16.1公里
散云层高于600英尺
阴天层高于1500英尺

METAR: KAVL 241414Z 29005KT 10SM SCT006 OVC015 12/11 A2992 RMK AO2 T01220111

时间: 10:26 (14:26 UTC)

预报

该预报发布于2小时和56分钟前的11:30 UTC
预报有效从24日的 12点(UTC)到 25日的 12点(UTC)
风速5节,风向多变
能見度: 9.7公里
散云层高于700英尺
阴天层高于1500英尺
小阵雨, 轻雾
短暂存在
从 24日的 12点(UTC)到 24日的 16点(UTC)
能見度: 4.8公里
阴天层高于600英尺
小阵雨, 轻雾
从 24日的 1600点(UTC)
风速6节,风向南转南东
能見度: 9.7公里
阴天层高于1200英尺
小阵雨, 轻雾
从 24日的 2100点(UTC)
风速5节,风向北转西北
能見度: 6.4公里
阴天层高于1000英尺
小阵雨, 轻雾
从 25日的 0000点(UTC)
风速4节,风向多变
能見度: 4.8公里
阴天层高于800英尺
轻雾, 附近有阵雨

TAF: KAVL 241130Z 2412/2512 VRB05KT 6SM -SHRA BR SCT007 OVC015 TEMPO 2412/2416 3SM -SHRA BR OVC006 FM241600 16006KT 6SM -SHRA BR OVC012 FM242100 34005KT 4SM -SHRA BR OVC010 FM250000 VRB04KT 3SM BR VCSH OVC008

超过4000个机场的气象观测和天气预报(METAR&TAF报告)。

可查询的气象台以黄色和红色小点在地图上表示。

将鼠标移到小点上方,可查看气象台名称。

然后点击查看天气观测和预报。

如需切换地图:点击带黑十字的绿色按钮放大地图;点击带横线的绿色按钮缩小地图;或者点击绿色箭头查看邻近地区的地图。


METAR-TAF: